Aérodrome :
LOGIN :

S'inscrire | Disclaimer

   EN    FR    IT 

 










Légende :    VFR   VFR Marginal   IFR   IFR Intensif   IFR Très Intensif
Visi : 
Plafond : 
>= 8 km
>= 3000ft
5 à 8 km
1000 à 3000 ft
1500m à 5 km
500 à 1000 ft
800 à 1500m
200 à 500 ft
< 800m
< 200 ft
Symboles :   Orages  Brouillard  Fortes neiges  Fortes précipitations  Vent > 20 kt
SIGMETs :   Divers  Orages  Givrage  Turbulence  Onde Orograph.  Cendres Volcan.







- Altitude de l'aérodrome : 129 ft
- Code IATA : ZCN


ETHC - Celle

DERNIER METAR :
  • 250920Z 25020G34KT 9999 FEW025 BKN028 15/08 Q1005 BLU BLU TEMPO WHT

METARs EXPIRÉS :
  • 250907Z 24023G37KT 9999 FEW025 SCT028 15/08 Q1005 BLU+BLU TEMPO WHT
  • 250832Z 24022G35KT 9999 FEW020 BKN023 15/09 Q1004 WHT BLU TEMPO WHT
  • 250820Z 24020KT 9999 SCT020 SCT040 15/10 Q1004 BLU+BLU TEMPO WHT
  • 250734Z 24018G30KT 8000 FEW020 SCT022 BKN055 14/10 Q1004 BLU BLU TEMPO WHT
  • 250720Z 23020G32KT 7000 -RADZ FEW020 BKN026 15/09 Q1004 WHT BLU TEMPO WHT

TAF TAF ETHC
Valide du 25 à 08h jusqu'au 25 à 17h UTC


250720Z 2508/2517 26020G30KT 9999 NSW SCT015 BKN040
TEMPO 2508/2513 28020G37KT 5000 -DZRA SCT010 BKN015
BECMG 2514/2516 27012KT 9999 NSW BKN020
Pas de NOTAMs connus pour ce terrain.



MET'MAP, la Météo Aéronautique d'un coup d'oeil ! - Copyright ORBIFLY Décembre 2007 - Disclaimer

ORBIFLY MET'MAP TEAM :

Programmation & Développement : Alexandra Zaïnal
Conception & Développement : Baudouin d'Aumeries
Co-Programmation & Développement : Marc-Olivier Méhu
Soutien technique & logistique : Manuel Goepfert

Contact : metmap@orbifly.com




SOURCES & CREDITS :

   NOAA